sensor_id;sensor_type;location;lat;lon;timestamp;P1;durP1;ratioP1;P2;durP2;ratioP2
13469;SDS011;6807;48.682;9.032;2022-07-18T00:02:01;2.45;;;1.85;;
13469;SDS011;6807;48.682;9.032;2022-07-18T00:04:28;3.58;;;1.60;;
13469;SDS011;6807;48.682;9.032;2022-07-18T00:06:56;2.05;;;1.77;;
13469;SDS011;6807;48.682;9.032;2022-07-18T00:09:24;4.63;;;2.47;;
13469;SDS011;6807;48.682;9.032;2022-07-18T00:11:51;2.60;;;1.88;;
13469;SDS011;6807;48.682;9.032;2022-07-18T00:14:18;2.70;;;2.08;;
13469;SDS011;6807;48.682;9.032;2022-07-18T00:16:48;3.00;;;1.90;;
13469;SDS011;6807;48.682;9.032;2022-07-18T00:19:15;2.30;;;2.00;;
13469;SDS011;6807;48.682;9.032;2022-07-18T00:21:43;2.17;;;1.75;;
13469;SDS011;6807;48.682;9.032;2022-07-18T00:24:10;2.88;;;2.10;;
13469;SDS011;6807;48.682;9.032;2022-07-18T00:26:37;3.63;;;2.00;;
13469;SDS011;6807;48.682;9.032;2022-07-18T00:29:04;2.47;;;2.05;;
13469;SDS011;6807;48.682;9.032;2022-07-18T00:31:31;2.70;;;2.13;;
13469;SDS011;6807;48.682;9.032;2022-07-18T00:33:59;3.03;;;2.17;;
13469;SDS011;6807;48.682;9.032;2022-07-18T00:36:27;2.75;;;1.88;;
13469;SDS011;6807;48.682;9.032;2022-07-18T00:38:54;2.47;;;1.90;;
13469;SDS011;6807;48.682;9.032;2022-07-18T00:41:21;2.28;;;1.90;;
13469;SDS011;6807;48.682;9.032;2022-07-18T00:43:48;3.92;;;2.10;;
13469;SDS011;6807;48.682;9.032;2022-07-18T00:46:15;2.58;;;1.98;;
13469;SDS011;6807;48.682;9.032;2022-07-18T00:48:46;3.78;;;2.22;;
13469;SDS011;6807;48.682;9.032;2022-07-18T00:51:14;3.08;;;2.08;;
13469;SDS011;6807;48.682;9.032;2022-07-18T00:53:42;2.88;;;2.20;;
13469;SDS011;6807;48.682;9.032;2022-07-18T00:56:09;2.42;;;1.90;;
13469;SDS011;6807;48.682;9.032;2022-07-18T00:58:37;2.55;;;2.05;;
13469;SDS011;6807;48.682;9.032;2022-07-18T01:01:04;2.22;;;1.88;;
13469;SDS011;6807;48.682;9.032;2022-07-18T01:03:49;2.10;;;1.90;;
13469;SDS011;6807;48.682;9.032;2022-07-18T01:06:17;2.05;;;1.83;;
13469;SDS011;6807;48.682;9.032;2022-07-18T01:08:44;2.72;;;2.15;;
13469;SDS011;6807;48.682;9.032;2022-07-18T01:11:11;2.83;;;2.15;;
13469;SDS011;6807;48.682;9.032;2022-07-18T01:13:39;2.55;;;2.10;;
13469;SDS011;6807;48.682;9.032;2022-07-18T01:16:07;2.83;;;1.95;;
13469;SDS011;6807;48.682;9.032;2022-07-18T01:18:34;2.33;;;1.80;;
13469;SDS011;6807;48.682;9.032;2022-07-18T01:21:02;2.00;;;1.80;;
13469;SDS011;6807;48.682;9.032;2022-07-18T01:23:29;5.25;;;2.20;;
13469;SDS011;6807;48.682;9.032;2022-07-18T01:25:56;3.22;;;2.40;;
13469;SDS011;6807;48.682;9.032;2022-07-18T01:28:23;3.35;;;2.17;;
13469;SDS011;6807;48.682;9.032;2022-07-18T01:30:50;2.58;;;2.05;;
13469;SDS011;6807;48.682;9.032;2022-07-18T01:33:17;2.13;;;1.92;;
13469;SDS011;6807;48.682;9.032;2022-07-18T01:35:44;4.28;;;1.90;;
13469;SDS011;6807;48.682;9.032;2022-07-18T01:38:12;3.30;;;1.92;;
13469;SDS011;6807;48.682;9.032;2022-07-18T01:40:39;3.47;;;3.17;;
13469;SDS011;6807;48.682;9.032;2022-07-18T01:43:07;4.32;;;2.17;;
13469;SDS011;6807;48.682;9.032;2022-07-18T01:45:34;6.18;;;2.20;;
13469;SDS011;6807;48.682;9.032;2022-07-18T01:48:02;3.08;;;2.00;;
13469;SDS011;6807;48.682;9.032;2022-07-18T01:50:29;3.05;;;2.17;;
13469;SDS011;6807;48.682;9.032;2022-07-18T01:52:56;4.55;;;2.17;;
13469;SDS011;6807;48.682;9.032;2022-07-18T01:55:24;2.53;;;1.92;;
13469;SDS011;6807;48.682;9.032;2022-07-18T01:57:51;3.35;;;2.20;;
13469;SDS011;6807;48.682;9.032;2022-07-18T02:00:18;2.53;;;1.92;;
13469;SDS011;6807;48.682;9.032;2022-07-18T02:02:45;4.95;;;2.50;;
13469;SDS011;6807;48.682;9.032;2022-07-18T02:05:12;2.80;;;2.30;;
13469;SDS011;6807;48.682;9.032;2022-07-18T02:07:40;3.15;;;2.15;;
13469;SDS011;6807;48.682;9.032;2022-07-18T02:10:09;3.42;;;2.40;;
13469;SDS011;6807;48.682;9.032;2022-07-18T02:12:39;2.22;;;1.90;;
13469;SDS011;6807;48.682;9.032;2022-07-18T02:15:07;1.70;;;1.60;;
13469;SDS011;6807;48.682;9.032;2022-07-18T02:17:35;2.88;;;2.20;;
13469;SDS011;6807;48.682;9.032;2022-07-18T02:20:03;3.63;;;2.05;;
13469;SDS011;6807;48.682;9.032;2022-07-18T02:22:31;2.40;;;2.13;;
13469;SDS011;6807;48.682;9.032;2022-07-18T02:24:58;2.40;;;2.20;;
13469;SDS011;6807;48.682;9.032;2022-07-18T02:27:25;3.22;;;2.28;;
13469;SDS011;6807;48.682;9.032;2022-07-18T02:29:53;3.13;;;2.03;;
13469;SDS011;6807;48.682;9.032;2022-07-18T02:32:20;4.30;;;2.08;;
13469;SDS011;6807;48.682;9.032;2022-07-18T02:34:48;2.38;;;2.17;;
13469;SDS011;6807;48.682;9.032;2022-07-18T02:37:15;2.20;;;2.00;;
13469;SDS011;6807;48.682;9.032;2022-07-18T02:39:42;2.92;;;2.13;;
13469;SDS011;6807;48.682;9.032;2022-07-18T02:42:09;2.50;;;2.10;;
13469;SDS011;6807;48.682;9.032;2022-07-18T02:44:36;3.03;;;2.10;;
13469;SDS011;6807;48.682;9.032;2022-07-18T02:47:04;2.47;;;2.25;;
13469;SDS011;6807;48.682;9.032;2022-07-18T02:49:31;2.25;;;2.05;;
13469;SDS011;6807;48.682;9.032;2022-07-18T02:51:59;2.35;;;2.03;;
13469;SDS011;6807;48.682;9.032;2022-07-18T02:54:29;2.55;;;2.10;;
13469;SDS011;6807;48.682;9.032;2022-07-18T02:56:56;2.33;;;2.13;;
13469;SDS011;6807;48.682;9.032;2022-07-18T02:59:24;3.17;;;2.03;;
13469;SDS011;6807;48.682;9.032;2022-07-18T03:01:51;3.75;;;2.72;;
13469;SDS011;6807;48.682;9.032;2022-07-18T03:04:20;4.22;;;2.28;;
13469;SDS011;6807;48.682;9.032;2022-07-18T03:06:48;4.47;;;2.40;;
13469;SDS011;6807;48.682;9.032;2022-07-18T03:09:15;3.20;;;2.22;;
13469;SDS011;6807;48.682;9.032;2022-07-18T03:11:43;3.55;;;2.42;;
13469;SDS011;6807;48.682;9.032;2022-07-18T03:14:10;2.80;;;2.47;;
13469;SDS011;6807;48.682;9.032;2022-07-18T03:16:38;2.28;;;2.08;;
13469;SDS011;6807;48.682;9.032;2022-07-18T03:19:04;3.15;;;2.35;;
13469;SDS011;6807;48.682;9.032;2022-07-18T03:21:33;2.33;;;2.13;;
13469;SDS011;6807;48.682;9.032;2022-07-18T03:23:59;4.45;;;2.38;;
13469;SDS011;6807;48.682;9.032;2022-07-18T03:26:26;5.68;;;2.47;;
13469;SDS011;6807;48.682;9.032;2022-07-18T03:28:53;4.45;;;2.35;;
13469;SDS011;6807;48.682;9.032;2022-07-18T03:31:20;2.33;;;2.13;;
13469;SDS011;6807;48.682;9.032;2022-07-18T03:33:47;2.70;;;2.30;;
13469;SDS011;6807;48.682;9.032;2022-07-18T03:36:14;3.28;;;2.90;;
13469;SDS011;6807;48.682;9.032;2022-07-18T03:38:42;3.63;;;2.55;;
13469;SDS011;6807;48.682;9.032;2022-07-18T03:41:09;2.90;;;1.98;;
13469;SDS011;6807;48.682;9.032;2022-07-18T03:43:36;4.35;;;2.40;;
13469;SDS011;6807;48.682;9.032;2022-07-18T03:46:04;2.80;;;2.30;;
13469;SDS011;6807;48.682;9.032;2022-07-18T03:48:31;2.60;;;2.17;;
13469;SDS011;6807;48.682;9.032;2022-07-18T03:50:58;5.07;;;2.55;;
13469;SDS011;6807;48.682;9.032;2022-07-18T03:53:25;3.20;;;2.55;;
13469;SDS011;6807;48.682;9.032;2022-07-18T03:55:54;2.65;;;2.38;;
13469;SDS011;6807;48.682;9.032;2022-07-18T03:58:20;3.10;;;2.15;;
13469;SDS011;6807;48.682;9.032;2022-07-18T04:00:47;5.32;;;2.33;;
13469;SDS011;6807;48.682;9.032;2022-07-18T04:03:14;4.05;;;2.28;;
13469;SDS011;6807;48.682;9.032;2022-07-18T04:05:42;2.95;;;2.35;;
13469;SDS011;6807;48.682;9.032;2022-07-18T04:08:10;5.35;;;2.17;;
13469;SDS011;6807;48.682;9.032;2022-07-18T04:10:37;4.60;;;2.67;;
13469;SDS011;6807;48.682;9.032;2022-07-18T04:13:06;2.97;;;2.30;;
13469;SDS011;6807;48.682;9.032;2022-07-18T04:15:34;2.40;;;2.20;;
13469;SDS011;6807;48.682;9.032;2022-07-18T04:18:01;2.63;;;2.42;;
13469;SDS011;6807;48.682;9.032;2022-07-18T04:20:29;4.65;;;2.40;;
13469;SDS011;6807;48.682;9.032;2022-07-18T04:22:56;3.00;;;2.10;;
13469;SDS011;6807;48.682;9.032;2022-07-18T04:25:25;2.95;;;2.10;;
13469;SDS011;6807;48.682;9.032;2022-07-18T04:27:54;4.85;;;2.40;;
13469;SDS011;6807;48.682;9.032;2022-07-18T04:30:23;2.85;;;2.47;;
13469;SDS011;6807;48.682;9.032;2022-07-18T04:32:52;4.90;;;2.50;;
13469;SDS011;6807;48.682;9.032;2022-07-18T04:35:20;7.07;;;2.55;;
13469;SDS011;6807;48.682;9.032;2022-07-18T04:37:47;3.17;;;2.40;;
13469;SDS011;6807;48.682;9.032;2022-07-18T04:40:15;5.28;;;2.70;;
13469;SDS011;6807;48.682;9.032;2022-07-18T04:42:42;3.75;;;2.53;;
13469;SDS011;6807;48.682;9.032;2022-07-18T04:45:09;4.07;;;2.38;;
13469;SDS011;6807;48.682;9.032;2022-07-18T04:47:38;3.75;;;2.40;;
13469;SDS011;6807;48.682;9.032;2022-07-18T04:50:05;3.05;;;2.08;;
13469;SDS011;6807;48.682;9.032;2022-07-18T04:52:35;2.95;;;2.05;;
13469;SDS011;6807;48.682;9.032;2022-07-18T04:55:05;2.72;;;2.05;;
13469;SDS011;6807;48.682;9.032;2022-07-18T04:57:33;2.47;;;2.05;;
13469;SDS011;6807;48.682;9.032;2022-07-18T05:00:00;3.30;;;2.00;;
13469;SDS011;6807;48.682;9.032;2022-07-18T05:02:27;5.63;;;2.33;;
13469;SDS011;6807;48.682;9.032;2022-07-18T05:04:55;2.78;;;2.40;;
13469;SDS011;6807;48.682;9.032;2022-07-18T05:07:22;2.55;;;2.35;;
13469;SDS011;6807;48.682;9.032;2022-07-18T05:09:49;3.55;;;2.67;;
13469;SDS011;6807;48.682;9.032;2022-07-18T05:12:16;2.97;;;2.65;;
13469;SDS011;6807;48.682;9.032;2022-07-18T05:14:44;3.67;;;2.30;;
13469;SDS011;6807;48.682;9.032;2022-07-18T05:17:10;27.23;;;3.83;;
13469;SDS011;6807;48.682;9.032;2022-07-18T05:19:37;6.53;;;2.97;;
13469;SDS011;6807;48.682;9.032;2022-07-18T05:22:06;9.63;;;3.00;;
13469;SDS011;6807;48.682;9.032;2022-07-18T05:24:32;5.25;;;2.60;;
13469;SDS011;6807;48.682;9.032;2022-07-18T05:26:59;3.97;;;2.95;;
13469;SDS011;6807;48.682;9.032;2022-07-18T05:29:26;4.95;;;2.58;;
13469;SDS011;6807;48.682;9.032;2022-07-18T05:31:53;4.95;;;2.50;;
13469;SDS011;6807;48.682;9.032;2022-07-18T05:34:20;4.57;;;2.70;;
13469;SDS011;6807;48.682;9.032;2022-07-18T05:36:48;2.83;;;2.40;;
13469;SDS011;6807;48.682;9.032;2022-07-18T05:39:16;7.07;;;2.70;;
13469;SDS011;6807;48.682;9.032;2022-07-18T05:41:43;6.57;;;2.92;;
13469;SDS011;6807;48.682;9.032;2022-07-18T05:44:10;6.00;;;2.90;;
13469;SDS011;6807;48.682;9.032;2022-07-18T05:46:37;6.50;;;3.25;;
13469;SDS011;6807;48.682;9.032;2022-07-18T05:49:04;5.50;;;2.70;;
13469;SDS011;6807;48.682;9.032;2022-07-18T05:51:31;8.07;;;2.95;;
13469;SDS011;6807;48.682;9.032;2022-07-18T05:53:58;4.88;;;2.90;;
13469;SDS011;6807;48.682;9.032;2022-07-18T05:56:26;4.00;;;2.30;;
13469;SDS011;6807;48.682;9.032;2022-07-18T05:58:53;6.72;;;2.83;;
13469;SDS011;6807;48.682;9.032;2022-07-18T06:01:19;3.20;;;2.30;;
13469;SDS011;6807;48.682;9.032;2022-07-18T06:03:47;4.53;;;2.67;;
13469;SDS011;6807;48.682;9.032;2022-07-18T06:06:15;3.88;;;2.30;;
13469;SDS011;6807;48.682;9.032;2022-07-18T06:08:45;6.00;;;2.90;;
13469;SDS011;6807;48.682;9.032;2022-07-18T06:11:12;5.72;;;3.05;;
13469;SDS011;6807;48.682;9.032;2022-07-18T06:13:40;5.75;;;2.60;;
13469;SDS011;6807;48.682;9.032;2022-07-18T06:16:08;5.60;;;2.50;;
13469;SDS011;6807;48.682;9.032;2022-07-18T06:18:35;3.95;;;2.25;;
13469;SDS011;6807;48.682;9.032;2022-07-18T06:21:02;4.13;;;2.20;;
13469;SDS011;6807;48.682;9.032;2022-07-18T06:23:30;3.50;;;2.20;;
13469;SDS011;6807;48.682;9.032;2022-07-18T06:25:57;5.40;;;2.63;;
13469;SDS011;6807;48.682;9.032;2022-07-18T06:28:24;3.28;;;2.17;;
13469;SDS011;6807;48.682;9.032;2022-07-18T06:30:54;6.50;;;2.45;;
13469;SDS011;6807;48.682;9.032;2022-07-18T06:33:21;4.35;;;2.20;;
13469;SDS011;6807;48.682;9.032;2022-07-18T06:35:48;3.50;;;2.03;;
13469;SDS011;6807;48.682;9.032;2022-07-18T06:38:15;2.63;;;2.10;;
13469;SDS011;6807;48.682;9.032;2022-07-18T06:40:42;3.25;;;2.45;;
13469;SDS011;6807;48.682;9.032;2022-07-18T06:43:10;4.30;;;1.92;;
13469;SDS011;6807;48.682;9.032;2022-07-18T06:45:38;3.35;;;1.98;;
13469;SDS011;6807;48.682;9.032;2022-07-18T06:48:07;4.28;;;2.30;;
13469;SDS011;6807;48.682;9.032;2022-07-18T06:50:35;5.18;;;2.30;;
13469;SDS011;6807;48.682;9.032;2022-07-18T06:53:02;2.70;;;2.40;;
13469;SDS011;6807;48.682;9.032;2022-07-18T06:55:28;3.75;;;2.47;;
13469;SDS011;6807;48.682;9.032;2022-07-18T06:57:55;3.83;;;2.17;;
13469;SDS011;6807;48.682;9.032;2022-07-18T07:00:22;4.82;;;2.08;;
13469;SDS011;6807;48.682;9.032;2022-07-18T07:02:49;4.75;;;2.60;;
13469;SDS011;6807;48.682;9.032;2022-07-18T07:05:18;2.75;;;2.10;;
13469;SDS011;6807;48.682;9.032;2022-07-18T07:07:46;5.75;;;2.10;;
13469;SDS011;6807;48.682;9.032;2022-07-18T07:10:14;2.15;;;1.92;;
13469;SDS011;6807;48.682;9.032;2022-07-18T07:12:42;5.07;;;2.05;;
13469;SDS011;6807;48.682;9.032;2022-07-18T07:15:10;4.13;;;2.38;;
13469;SDS011;6807;48.682;9.032;2022-07-18T07:17:38;5.03;;;2.30;;
13469;SDS011;6807;48.682;9.032;2022-07-18T07:20:05;3.03;;;2.63;;
13469;SDS011;6807;48.682;9.032;2022-07-18T07:22:41;3.13;;;2.33;;
13469;SDS011;6807;48.682;9.032;2022-07-18T07:25:09;5.60;;;2.78;;
13469;SDS011;6807;48.682;9.032;2022-07-18T07:27:36;2.10;;;1.90;;
13469;SDS011;6807;48.682;9.032;2022-07-18T07:30:04;3.60;;;1.90;;
13469;SDS011;6807;48.682;9.032;2022-07-18T07:32:33;4.22;;;2.10;;
13469;SDS011;6807;48.682;9.032;2022-07-18T07:35:01;2.47;;;1.90;;
13469;SDS011;6807;48.682;9.032;2022-07-18T07:37:31;1.95;;;1.70;;
13469;SDS011;6807;48.682;9.032;2022-07-18T07:40:00;2.92;;;2.08;;
13469;SDS011;6807;48.682;9.032;2022-07-18T07:42:27;4.10;;;1.88;;
13469;SDS011;6807;48.682;9.032;2022-07-18T07:44:54;2.30;;;1.80;;
13469;SDS011;6807;48.682;9.032;2022-07-18T07:47:21;2.30;;;1.88;;
13469;SDS011;6807;48.682;9.032;2022-07-18T07:49:48;6.28;;;2.10;;
13469;SDS011;6807;48.682;9.032;2022-07-18T07:52:17;5.22;;;2.30;;
13469;SDS011;6807;48.682;9.032;2022-07-18T07:54:45;2.47;;;1.98;;
13469;SDS011;6807;48.682;9.032;2022-07-18T07:57:14;2.10;;;1.90;;
13469;SDS011;6807;48.682;9.032;2022-07-18T07:59:41;2.88;;;1.90;;
13469;SDS011;6807;48.682;9.032;2022-07-18T08:02:08;2.33;;;1.77;;
13469;SDS011;6807;48.682;9.032;2022-07-18T08:04:35;1.73;;;1.63;;
13469;SDS011;6807;48.682;9.032;2022-07-18T08:07:02;1.80;;;1.70;;
13469;SDS011;6807;48.682;9.032;2022-07-18T08:09:29;2.47;;;1.83;;
13469;SDS011;6807;48.682;9.032;2022-07-18T08:11:56;1.95;;;1.83;;
13469;SDS011;6807;48.682;9.032;2022-07-18T08:14:25;3.30;;;1.73;;
13469;SDS011;6807;48.682;9.032;2022-07-18T08:16:51;1.80;;;1.60;;
13469;SDS011;6807;48.682;9.032;2022-07-18T08:19:18;2.97;;;1.70;;
13469;SDS011;6807;48.682;9.032;2022-07-18T08:21:45;1.88;;;1.70;;
13469;SDS011;6807;48.682;9.032;2022-07-18T08:24:12;3.17;;;1.70;;
13469;SDS011;6807;48.682;9.032;2022-07-18T08:26:39;3.92;;;2.08;;
13469;SDS011;6807;48.682;9.032;2022-07-18T08:29:06;2.65;;;1.88;;
13469;SDS011;6807;48.682;9.032;2022-07-18T08:31:34;2.25;;;1.85;;
13469;SDS011;6807;48.682;9.032;2022-07-18T08:34:02;2.83;;;2.20;;
13469;SDS011;6807;48.682;9.032;2022-07-18T08:36:29;4.45;;;2.10;;
13469;SDS011;6807;48.682;9.032;2022-07-18T08:38:56;1.90;;;1.73;;
13469;SDS011;6807;48.682;9.032;2022-07-18T08:41:23;4.72;;;1.85;;
13469;SDS011;6807;48.682;9.032;2022-07-18T08:43:50;4.85;;;2.20;;
13469;SDS011;6807;48.682;9.032;2022-07-18T08:46:18;1.92;;;1.75;;
13469;SDS011;6807;48.682;9.032;2022-07-18T08:48:48;1.90;;;1.75;;
13469;SDS011;6807;48.682;9.032;2022-07-18T08:51:17;2.90;;;1.67;;
13469;SDS011;6807;48.682;9.032;2022-07-18T08:53:46;2.88;;;1.80;;
13469;SDS011;6807;48.682;9.032;2022-07-18T08:56:13;2.00;;;1.80;;
13469;SDS011;6807;48.682;9.032;2022-07-18T08:58:40;2.22;;;2.00;;
13469;SDS011;6807;48.682;9.032;2022-07-18T09:01:07;1.70;;;1.60;;
13469;SDS011;6807;48.682;9.032;2022-07-18T09:03:35;1.88;;;1.77;;
13469;SDS011;6807;48.682;9.032;2022-07-18T09:06:04;2.05;;;1.85;;
13469;SDS011;6807;48.682;9.032;2022-07-18T09:08:31;2.40;;;1.70;;
13469;SDS011;6807;48.682;9.032;2022-07-18T09:10:59;2.45;;;1.65;;
13469;SDS011;6807;48.682;9.032;2022-07-18T09:13:34;3.78;;;1.73;;
13469;SDS011;6807;48.682;9.032;2022-07-18T09:16:03;2.95;;;1.73;;
13469;SDS011;6807;48.682;9.032;2022-07-18T09:18:31;2.17;;;1.83;;
13469;SDS011;6807;48.682;9.032;2022-07-18T09:20:59;1.95;;;1.50;;
13469;SDS011;6807;48.682;9.032;2022-07-18T09:23:29;2.63;;;1.70;;
13469;SDS011;6807;48.682;9.032;2022-07-18T09:25:56;4.30;;;1.67;;
13469;SDS011;6807;48.682;9.032;2022-07-18T09:28:25;3.78;;;1.80;;
13469;SDS011;6807;48.682;9.032;2022-07-18T09:30:52;2.45;;;1.65;;
13469;SDS011;6807;48.682;9.032;2022-07-18T09:33:19;3.92;;;1.80;;
13469;SDS011;6807;48.682;9.032;2022-07-18T09:35:47;2.08;;;1.75;;
13469;SDS011;6807;48.682;9.032;2022-07-18T09:38:16;10.73;;;2.50;;
13469;SDS011;6807;48.682;9.032;2022-07-18T09:40:45;1.73;;;1.63;;
13469;SDS011;6807;48.682;9.032;2022-07-18T09:43:13;9.82;;;2.50;;
13469;SDS011;6807;48.682;9.032;2022-07-18T09:45:42;2.05;;;1.60;;
13469;SDS011;6807;48.682;9.032;2022-07-18T09:48:10;2.45;;;1.90;;
13469;SDS011;6807;48.682;9.032;2022-07-18T09:50:38;1.80;;;1.70;;
13469;SDS011;6807;48.682;9.032;2022-07-18T09:53:08;1.90;;;1.80;;
13469;SDS011;6807;48.682;9.032;2022-07-18T09:55:36;1.75;;;1.55;;
13469;SDS011;6807;48.682;9.032;2022-07-18T09:58:09;2.67;;;1.70;;
13469;SDS011;6807;48.682;9.032;2022-07-18T10:00:37;3.90;;;1.90;;
13469;SDS011;6807;48.682;9.032;2022-07-18T10:03:06;2.67;;;1.80;;
13469;SDS011;6807;48.682;9.032;2022-07-18T10:05:33;2.00;;;1.80;;
13469;SDS011;6807;48.682;9.032;2022-07-18T10:08:02;1.83;;;1.73;;
13469;SDS011;6807;48.682;9.032;2022-07-18T10:10:30;1.95;;;1.73;;
13469;SDS011;6807;48.682;9.032;2022-07-18T10:12:59;2.08;;;1.70;;
13469;SDS011;6807;48.682;9.032;2022-07-18T10:15:28;2.15;;;1.45;;
13469;SDS011;6807;48.682;9.032;2022-07-18T10:17:56;2.10;;;1.60;;
13469;SDS011;6807;48.682;9.032;2022-07-18T10:20:25;2.53;;;1.55;;
13469;SDS011;6807;48.682;9.032;2022-07-18T10:22:53;1.55;;;1.45;;
13469;SDS011;6807;48.682;9.032;2022-07-18T10:25:21;2.05;;;1.65;;
13469;SDS011;6807;48.682;9.032;2022-07-18T10:27:50;2.78;;;1.67;;
13469;SDS011;6807;48.682;9.032;2022-07-18T10:30:18;3.08;;;1.70;;
13469;SDS011;6807;48.682;9.032;2022-07-18T10:32:56;2.45;;;1.50;;
13469;SDS011;6807;48.682;9.032;2022-07-18T10:38:18;1.88;;;1.40;;
13469;SDS011;6807;48.682;9.032;2022-07-18T10:41:00;1.50;;;1.40;;
13469;SDS011;6807;48.682;9.032;2022-07-18T10:43:31;2.15;;;1.70;;
13469;SDS011;6807;48.682;9.032;2022-07-18T10:45:59;1.90;;;1.52;;
13469;SDS011;6807;48.682;9.032;2022-07-18T10:51:32;1.70;;;1.60;;
13469;SDS011;6807;48.682;9.032;2022-07-18T11:02:38;1.98;;;1.50;;
13469;SDS011;6807;48.682;9.032;2022-07-18T11:13:35;1.60;;;1.50;;
13469;SDS011;6807;48.682;9.032;2022-07-18T11:16:03;2.13;;;1.60;;
13469;SDS011;6807;48.682;9.032;2022-07-18T11:18:32;2.40;;;1.70;;
13469;SDS011;6807;48.682;9.032;2022-07-18T11:20:59;1.50;;;1.40;;
13469;SDS011;6807;48.682;9.032;2022-07-18T11:23:27;1.70;;;1.60;;
13469;SDS011;6807;48.682;9.032;2022-07-18T11:25:55;1.70;;;1.60;;
13469;SDS011;6807;48.682;9.032;2022-07-18T11:28:25;1.60;;;1.50;;
13469;SDS011;6807;48.682;9.032;2022-07-18T11:30:59;2.42;;;1.70;;
13469;SDS011;6807;48.682;9.032;2022-07-18T11:33:27;1.50;;;1.40;;
13469;SDS011;6807;48.682;9.032;2022-07-18T11:36:01;1.42;;;1.33;;
13469;SDS011;6807;48.682;9.032;2022-07-18T11:38:28;3.40;;;1.65;;
13469;SDS011;6807;48.682;9.032;2022-07-18T11:40:56;2.92;;;1.65;;
13469;SDS011;6807;48.682;9.032;2022-07-18T11:43:25;2.33;;;1.50;;
13469;SDS011;6807;48.682;9.032;2022-07-18T11:46:02;3.60;;;1.70;;
13469;SDS011;6807;48.682;9.032;2022-07-18T11:48:30;2.75;;;1.45;;
13469;SDS011;6807;48.682;9.032;2022-07-18T11:50:57;1.60;;;1.50;;
13469;SDS011;6807;48.682;9.032;2022-07-18T11:53:24;5.15;;;1.70;;
13469;SDS011;6807;48.682;9.032;2022-07-18T11:55:52;1.80;;;1.70;;
13469;SDS011;6807;48.682;9.032;2022-07-18T11:58:19;1.83;;;1.42;;
13469;SDS011;6807;48.682;9.032;2022-07-18T12:00:48;2.47;;;1.52;;
13469;SDS011;6807;48.682;9.032;2022-07-18T12:03:16;3.15;;;1.77;;
13469;SDS011;6807;48.682;9.032;2022-07-18T12:05:45;6.13;;;1.77;;
13469;SDS011;6807;48.682;9.032;2022-07-18T12:08:26;1.55;;;1.45;;
13469;SDS011;6807;48.682;9.032;2022-07-18T12:11:07;1.75;;;1.45;;
13469;SDS011;6807;48.682;9.032;2022-07-18T12:13:45;1.55;;;1.45;;
13469;SDS011;6807;48.682;9.032;2022-07-18T12:16:30;1.70;;;1.60;;
13469;SDS011;6807;48.682;9.032;2022-07-18T12:18:59;2.85;;;1.60;;
13469;SDS011;6807;48.682;9.032;2022-07-18T12:21:42;3.97;;;1.52;;
13469;SDS011;6807;48.682;9.032;2022-07-18T12:24:30;1.75;;;1.55;;
13469;SDS011;6807;48.682;9.032;2022-07-18T12:27:11;4.10;;;1.83;;
13469;SDS011;6807;48.682;9.032;2022-07-18T12:29:58;1.63;;;1.30;;
13469;SDS011;6807;48.682;9.032;2022-07-18T12:32:29;1.80;;;1.40;;
13469;SDS011;6807;48.682;9.032;2022-07-18T12:34:57;1.50;;;1.40;;
13469;SDS011;6807;48.682;9.032;2022-07-18T12:37:26;8.90;;;2.30;;
13469;SDS011;6807;48.682;9.032;2022-07-18T12:39:58;1.63;;;1.52;;
13469;SDS011;6807;48.682;9.032;2022-07-18T12:42:29;1.60;;;1.50;;
13469;SDS011;6807;48.682;9.032;2022-07-18T12:44:56;14.35;;;2.97;;
13469;SDS011;6807;48.682;9.032;2022-07-18T12:47:24;5.13;;;1.70;;
13469;SDS011;6807;48.682;9.032;2022-07-18T12:49:52;1.90;;;1.80;;
13469;SDS011;6807;48.682;9.032;2022-07-18T12:52:19;1.67;;;1.58;;
13469;SDS011;6807;48.682;9.032;2022-07-18T12:54:47;2.38;;;1.52;;
13469;SDS011;6807;48.682;9.032;2022-07-18T12:57:14;1.40;;;1.30;;
13469;SDS011;6807;48.682;9.032;2022-07-18T12:59:41;2.65;;;1.63;;
13469;SDS011;6807;48.682;9.032;2022-07-18T13:02:09;3.40;;;1.90;;
13469;SDS011;6807;48.682;9.032;2022-07-18T13:04:36;2.03;;;1.70;;
13469;SDS011;6807;48.682;9.032;2022-07-18T13:07:05;1.63;;;1.52;;
13469;SDS011;6807;48.682;9.032;2022-07-18T13:09:32;1.75;;;1.60;;
13469;SDS011;6807;48.682;9.032;2022-07-18T13:11:59;1.52;;;1.42;;
13469;SDS011;6807;48.682;9.032;2022-07-18T13:14:27;1.70;;;1.60;;
13469;SDS011;6807;48.682;9.032;2022-07-18T13:16:54;2.40;;;1.70;;
13469;SDS011;6807;48.682;9.032;2022-07-18T13:19:21;3.13;;;1.95;;
13469;SDS011;6807;48.682;9.032;2022-07-18T13:21:48;3.28;;;1.60;;
13469;SDS011;6807;48.682;9.032;2022-07-18T13:24:17;2.45;;;1.60;;
13469;SDS011;6807;48.682;9.032;2022-07-18T13:26:44;2.22;;;1.58;;
13469;SDS011;6807;48.682;9.032;2022-07-18T13:29:11;3.58;;;1.60;;
13469;SDS011;6807;48.682;9.032;2022-07-18T13:31:38;1.63;;;1.52;;
13469;SDS011;6807;48.682;9.032;2022-07-18T13:34:06;2.35;;;1.80;;
13469;SDS011;6807;48.682;9.032;2022-07-18T13:36:33;2.10;;;1.83;;
13469;SDS011;6807;48.682;9.032;2022-07-18T13:39:00;5.57;;;1.50;;
13469;SDS011;6807;48.682;9.032;2022-07-18T13:41:29;2.08;;;1.70;;
13469;SDS011;6807;48.682;9.032;2022-07-18T13:43:56;5.43;;;1.85;;
13469;SDS011;6807;48.682;9.032;2022-07-18T13:46:24;2.30;;;1.80;;
13469;SDS011;6807;48.682;9.032;2022-07-18T13:48:51;6.70;;;1.85;;
13469;SDS011;6807;48.682;9.032;2022-07-18T13:51:18;9.25;;;2.63;;
13469;SDS011;6807;48.682;9.032;2022-07-18T13:53:45;5.53;;;1.80;;
13469;SDS011;6807;48.682;9.032;2022-07-18T13:56:13;1.83;;;1.55;;
13469;SDS011;6807;48.682;9.032;2022-07-18T13:58:41;2.03;;;1.63;;
13469;SDS011;6807;48.682;9.032;2022-07-18T14:01:08;1.85;;;1.70;;
13469;SDS011;6807;48.682;9.032;2022-07-18T14:03:36;1.95;;;1.65;;
13469;SDS011;6807;48.682;9.032;2022-07-18T14:06:03;2.25;;;1.60;;
13469;SDS011;6807;48.682;9.032;2022-07-18T14:08:30;2.10;;;1.90;;
13469;SDS011;6807;48.682;9.032;2022-07-18T14:10:57;1.75;;;1.65;;
13469;SDS011;6807;48.682;9.032;2022-07-18T14:13:24;2.75;;;1.67;;
13469;SDS011;6807;48.682;9.032;2022-07-18T14:15:53;2.53;;;1.70;;
13469;SDS011;6807;48.682;9.032;2022-07-18T14:18:20;4.22;;;1.60;;
13469;SDS011;6807;48.682;9.032;2022-07-18T14:20:47;2.28;;;1.70;;
13469;SDS011;6807;48.682;9.032;2022-07-18T14:23:15;2.28;;;1.80;;
13469;SDS011;6807;48.682;9.032;2022-07-18T14:25:42;3.10;;;1.83;;
13469;SDS011;6807;48.682;9.032;2022-07-18T14:28:11;3.60;;;1.80;;
13469;SDS011;6807;48.682;9.032;2022-07-18T14:30:38;4.88;;;1.90;;
13469;SDS011;6807;48.682;9.032;2022-07-18T14:33:06;1.90;;;1.80;;
13469;SDS011;6807;48.682;9.032;2022-07-18T14:35:34;5.25;;;2.00;;
13469;SDS011;6807;48.682;9.032;2022-07-18T14:38:01;3.25;;;1.80;;
13469;SDS011;6807;48.682;9.032;2022-07-18T14:40:28;2.10;;;1.90;;
13469;SDS011;6807;48.682;9.032;2022-07-18T14:42:55;1.70;;;1.60;;
13469;SDS011;6807;48.682;9.032;2022-07-18T14:45:22;1.92;;;1.70;;
13469;SDS011;6807;48.682;9.032;2022-07-18T14:47:49;3.03;;;1.73;;
13469;SDS011;6807;48.682;9.032;2022-07-18T14:50:18;2.22;;;2.03;;
13469;SDS011;6807;48.682;9.032;2022-07-18T14:52:53;14.77;;;2.75;;
13469;SDS011;6807;48.682;9.032;2022-07-18T14:55:20;1.92;;;1.75;;
13469;SDS011;6807;48.682;9.032;2022-07-18T14:57:48;15.50;;;2.80;;
13469;SDS011;6807;48.682;9.032;2022-07-18T15:00:15;5.65;;;1.80;;
13469;SDS011;6807;48.682;9.032;2022-07-18T15:02:43;2.25;;;1.70;;
13469;SDS011;6807;48.682;9.032;2022-07-18T15:05:10;2.20;;;2.00;;
13469;SDS011;6807;48.682;9.032;2022-07-18T15:07:39;3.75;;;1.77;;
13469;SDS011;6807;48.682;9.032;2022-07-18T15:10:06;3.95;;;1.85;;
13469;SDS011;6807;48.682;9.032;2022-07-18T15:12:34;3.97;;;2.00;;
13469;SDS011;6807;48.682;9.032;2022-07-18T15:15:01;9.27;;;1.52;;
13469;SDS011;6807;48.682;9.032;2022-07-18T15:17:29;1.70;;;1.52;;
13469;SDS011;6807;48.682;9.032;2022-07-18T15:19:57;3.95;;;1.73;;
13469;SDS011;6807;48.682;9.032;2022-07-18T15:22:24;2.42;;;1.90;;
13469;SDS011;6807;48.682;9.032;2022-07-18T15:24:53;3.85;;;1.95;;
13469;SDS011;6807;48.682;9.032;2022-07-18T15:27:20;2.05;;;1.60;;
13469;SDS011;6807;48.682;9.032;2022-07-18T15:29:47;3.72;;;1.88;;